Terminal Aerodrome Forecast
Issued by NWS Atlanta, GA

Home | Current Version | Previous Version | Text Only | Print | Product List | Glossary On
Versions: 1 2 3 4 5 6 7 8 9 10 11 12 13 14 15 16 17 18 19 20 21 22 23 24 25 26 27 28 29 30
617
FTUS42 KFFC 221520 CCA
TAFAHN
TAF COR
KAHN 221520Z 2215/2312 13005KT P6SM SCT007 SCT035 BKN250
      TEMPO 2215/2218 BKN007 BKN028
     FM221800 13008KT P6SM BKN025
     FM222000 16009KT P6SM VCSH OVC012
     FM222300 17009KT 5SM -SHRA OVC007 PROB30 2301/2305 21012G22KT
      4SM TSRA OVC008CB
     FM230600 22010KT 6SM BR OVC015
     FM230900 27008KT P6SM BKN050=

USA.gov is the U.S. government's official web portal to all federal, state and local government web resources and services.